AirNav   Everest Fuels
 
 338 users online  

TE37 Canyon Ranch Airport
Sonora, Texas, USA

GOING TO SONORA?


FAA INFORMATION EFFECTIVE 25 FEBRUARY 2021

Location

FAA Identifier: TE37
Lat/Long: 30-16-08.7030N 100-27-03.3150W
30-16.145050N 100-27.055250W
30.2690842,-100.4509208
(estimated)
Elevation: 2306 ft. / 703 m (estimated)
Variation: 08E (1995)
From city: 28 miles SE of SONORA, TX
Time zone: UTC -6 (UTC -5 during Daylight Saving Time)
Zip code: 76950

Airport Operations

Airport use: Private use. Permission required prior to landing
Activation date: 11/1987
Control tower: no
ARTCC: HOUSTON CENTER
FSS: SAN ANGELO FLIGHT SERVICE STATION
Attendance: UNATNDD
Segmented circle: no

Airport Communications

WX AWOS-3 at 9TE2 (18 nm N): 120.425 (325-276-2771)

Nearby radio navigation aids

VOR radial/distance  VOR name  Freq  Var
RSGr323/17.2ROCKSPRINGS VORTAC114.5510E
JCTr231/38.3JUNCTION VORTAC116.0008E

 
NDB name  Hdg/Dist  Freq  Var  ID
SONORA144/21.337108ESOA ... --- .-

Airport Services

Runway Information

Runway 15/33

Dimensions: 6200 x 60 ft. / 1890 x 18 m
Surface: asphalt
RUNWAY 15  RUNWAY 33
Traffic pattern: leftleft

Airport Ownership and Management from official FAA records

Ownership: Privately-owned
Owner: SUTTON-EDWARDS RANCH, LP
10510 W SAM HOUSTON PKWY S
HOUSTON, TX 76950
Phone 218-568-4185
Manager: MARTY VAUGHN
10510 W SAM HOUSTON PKWY S
SONORA, TX 76950
Phone (218) 568-4185

Additional Remarks

FOR CD CTC LAUGHLIN APCH AT 830-298-4350, WHEN APCH CLSD CTC HOUSTON ARTCC AT 281-230-5622.

Instrument Procedures

There are no published instrument procedures at TE37.

Some nearby airports with instrument procedures:

KSOA - Sonora Municipal Airport (22 nm NW)
KECU - Edwards County Airport (24 nm SE)
KJCT - Kimble County Airport (38 nm E)
KOZA - Ozona Municipal Airport (48 nm NW)
KDLF - Laughlin AFB Airport (57 nm S)
 
Loc | Ops | Rwys | IFR | FBO | Links
Com | Nav | Svcs | Stats | Notes
Area around TE37 (Canyon Ranch Airport)
 
Road maps at: MapQuest Bing Google
 
Aerial photo
No photo
 
Sectional chart

 
Airport distance calculator
Flying to Canyon Ranch Airport? Find the distance to fly.

From to TE37

Sunrise and sunset
Times for 09-Mar-2021
 Local
(UTC-6)
 Zulu
(UTC)
Morning civil twilight06:3612:36
Sunrise07:0013:00
Sunset18:4500:45
Evening civil twilight19:0901:09

Current date and time
Zulu (UTC)  09-Mar-2021 08:19:38
Local (UTC-6)  09-Mar-2021 02:19:38
 
METAR
KSOA 
22nm NW 
090755Z AUTO 16004G12KT 10SM CLR 14/11 A3028 RMK AO2
KECU 
24nm SE 
090755Z AUTO 16015KT 10SM OVC012 13/11 A3031 RMK AO2
KJCT 
38nm E 
090751Z AUTO 16003KT 10SM OVC024 14/09 A3027 RMK AO2 SLP225 T01440094
TAF
KSOA 
22nm NW 
090520Z 0906/1006 18008KT P6SM SCT050 FM090700 18010KT P6SM BKN015 FM091200 18013G20KT P6SM OVC009 FM092000 18018G28KT P6SM SCT020 FM100300 18010KT P6SM FEW030
NOTAMs
Click for the latest NOTAMs
NOTAMs are issued by the DoD/FAA and will open in a separate window not controlled by AirNav.

 

 
 

Would you like to see your business listed on this page?

 If your business provides an interesting product or service to pilots, flight crews, aircraft, or users of the Canyon Ranch Airport, you should consider listing it here.  To start the listing process, click on the button below
 
Add a business
 

Other Pages about Canyon Ranch Airport

Update a link
 
Copyright © AirNav, LLC. All rights reserved. Privacy Policy  Contact